createdAt,value
2023-05-06T00:00:50.109Z,9.47
2023-05-06T00:03:18.189Z,9.49
2023-05-06T00:05:47.521Z,9.45
2023-05-06T00:08:16.603Z,9.53
2023-05-06T00:10:44.339Z,9.28
2023-05-06T00:13:12.848Z,9.46
2023-05-06T00:15:40.973Z,9.52
2023-05-06T00:18:08.919Z,9.73
2023-05-06T00:20:36.661Z,9.66
2023-05-06T00:23:04.406Z,9.46
2023-05-06T00:25:33.490Z,9.17
2023-05-06T00:28:01.268Z,9.47
2023-05-06T00:30:29.209Z,9.48
2023-05-06T00:32:57.086Z,9.73
2023-05-06T00:35:24.853Z,9.21
2023-05-06T00:37:58.590Z,9.56
2023-05-06T00:40:26.390Z,9.29
2023-05-06T00:42:55.750Z,9.37
2023-05-06T00:45:23.640Z,9.51
2023-05-06T00:47:51.678Z,9.79
2023-05-06T00:50:19.804Z,9.63
2023-05-06T00:52:47.752Z,9.45
2023-05-06T00:55:15.836Z,9.54
2023-05-06T00:57:43.639Z,9.17
2023-05-06T01:00:13.660Z,9.18
2023-05-06T01:02:47.131Z,8.84
2023-05-06T01:05:16.655Z,8.71
2023-05-06T01:07:53.609Z,9.29
2023-05-06T01:10:27.852Z,9.16
2023-05-06T01:13:03.940Z,9.13
2023-05-06T01:15:37.694Z,8.83
2023-05-06T01:18:10.194Z,8.62
2023-05-06T01:20:39.440Z,8.80
2023-05-06T01:23:13.090Z,8.72
2023-05-06T01:25:41.466Z,8.76
2023-05-06T01:28:11.671Z,8.47
2023-05-06T01:30:45.535Z,9.09
2023-05-06T01:33:20.718Z,8.61
2023-05-06T01:35:56.670Z,8.71
2023-05-06T01:38:32.325Z,8.59
2023-05-06T01:41:02.813Z,8.74
2023-05-06T01:43:38.821Z,8.67
2023-05-06T01:46:12.531Z,8.48
2023-05-06T01:48:41.850Z,9.02
2023-05-06T01:51:09.826Z,8.92
2023-05-06T01:53:38.926Z,9.02
2023-05-06T01:56:07.098Z,8.80
2023-05-06T01:58:34.830Z,8.72
2023-05-06T02:01:02.619Z,8.76
2023-05-06T02:03:30.465Z,8.50
2023-05-06T02:05:58.291Z,8.41
2023-05-06T02:08:26.169Z,8.81
2023-05-06T02:10:55.330Z,8.90
2023-05-06T02:13:23.068Z,8.92
2023-05-06T02:15:53.680Z,8.64
2023-05-06T02:18:22.178Z,8.59
2023-05-06T02:20:49.913Z,8.98
2023-05-06T02:23:17.689Z,8.84
2023-05-06T02:25:45.446Z,9.10
2023-05-06T02:28:14.591Z,8.88
2023-05-06T02:30:42.340Z,8.77
2023-05-06T02:33:10.079Z,8.22
2023-05-06T02:35:37.853Z,8.44
2023-05-06T02:38:05.621Z,8.58
2023-05-06T02:40:33.354Z,8.76
2023-05-06T02:43:01.421Z,8.68
2023-05-06T02:45:30.652Z,8.38
2023-05-06T02:47:58.475Z,8.52
2023-05-06T02:50:26.375Z,8.14
2023-05-06T02:52:54.103Z,8.44
2023-05-06T02:55:21.817Z,8.36
2023-05-06T02:57:49.529Z,8.69
2023-05-06T03:00:17.968Z,8.53
2023-05-06T03:02:47.236Z,8.95
2023-05-06T03:05:15.037Z,8.71
2023-05-06T03:07:42.798Z,8.85
2023-05-06T03:10:11.495Z,8.53
2023-05-06T03:12:39.291Z,8.24
2023-05-06T03:15:08.214Z,8.69
2023-05-06T03:17:36.151Z,8.68
2023-05-06T03:20:08.143Z,8.03
2023-05-06T03:22:36.012Z,8.54
2023-05-06T03:25:03.856Z,8.79
2023-05-06T03:27:31.569Z,8.77
2023-05-06T03:29:59.315Z,8.54
2023-05-06T03:32:27.139Z,8.62
2023-05-06T03:34:54.902Z,8.50
2023-05-06T03:37:24.046Z,8.42
2023-05-06T03:39:51.799Z,9.12
2023-05-06T03:42:19.535Z,8.64
2023-05-06T03:44:47.231Z,8.79
2023-05-06T03:47:14.954Z,8.67
2023-05-06T03:49:42.605Z,8.72
2023-05-06T03:52:10.349Z,8.46
2023-05-06T03:54:39.442Z,8.92
2023-05-06T03:57:07.208Z,8.90
2023-05-06T03:59:34.960Z,8.28
2023-05-06T04:02:02.748Z,8.48
2023-05-06T04:04:30.514Z,8.31
2023-05-06T04:06:58.198Z,8.33
2023-05-06T04:09:25.992Z,8.35
2023-05-06T04:11:55.076Z,8.46
2023-05-06T04:14:23.192Z,8.51
2023-05-06T04:16:50.940Z,8.38
2023-05-06T04:19:18.731Z,8.70
2023-05-06T04:21:46.434Z,8.33
2023-05-06T04:24:15.974Z,8.42
2023-05-06T04:26:43.757Z,8.32
2023-05-06T04:29:12.859Z,8.55
2023-05-06T04:31:40.624Z,8.48
2023-05-06T04:34:10.832Z,8.43
2023-05-06T04:36:40.576Z,8.97
2023-05-06T04:39:08.932Z,8.59
2023-05-06T04:41:36.820Z,8.64
2023-05-06T04:44:04.815Z,8.65
2023-05-06T04:46:34.032Z,8.55
2023-05-06T04:49:01.769Z,8.80
2023-05-06T04:51:29.697Z,8.81
2023-05-06T04:53:57.431Z,8.54
2023-05-06T04:56:26.140Z,8.62
2023-05-06T04:58:53.909Z,9.04
2023-05-06T05:01:21.697Z,9.05
2023-05-06T05:03:50.854Z,8.76
2023-05-06T05:06:18.615Z,8.83
2023-05-06T05:08:46.400Z,9.04
2023-05-06T05:11:14.155Z,8.71
2023-05-06T05:13:41.885Z,8.64
2023-05-06T05:16:09.605Z,8.53
2023-05-06T05:18:37.346Z,8.93
2023-05-06T05:21:06.551Z,8.76
2023-05-06T05:23:34.249Z,8.69
2023-05-06T05:26:02.454Z,8.60
2023-05-06T05:28:30.237Z,8.99
2023-05-06T05:31:03.085Z,9.05
2023-05-06T05:33:30.908Z,8.76
2023-05-06T05:35:59.042Z,9.10
2023-05-06T05:38:28.282Z,9.01
2023-05-06T05:40:56.043Z,9.07
2023-05-06T05:43:25.976Z,8.99
2023-05-06T05:45:53.867Z,8.71
2023-05-06T05:48:21.617Z,9.05
2023-05-06T05:50:49.311Z,8.84
2023-05-06T05:53:17.042Z,8.99
2023-05-06T05:55:46.171Z,8.83
2023-05-06T05:58:13.869Z,8.88
2023-05-06T06:00:41.578Z,9.03
2023-05-06T06:03:09.608Z,9.14
2023-05-06T06:05:37.550Z,9.03
2023-05-06T06:08:06.496Z,9.20
2023-05-06T06:10:34.259Z,8.86
2023-05-06T06:13:03.431Z,9.20
2023-05-06T06:15:31.686Z,9.33
2023-05-06T06:17:59.508Z,9.14
2023-05-06T06:20:27.305Z,9.50
2023-05-06T06:22:55.152Z,9.56
2023-05-06T06:25:23.065Z,9.37
2023-05-06T06:27:50.792Z,9.28
2023-05-06T06:30:19.954Z,9.58
2023-05-06T06:32:52.884Z,9.23
2023-05-06T06:35:21.162Z,9.41
2023-05-06T06:37:49.116Z,9.25
2023-05-06T06:40:17.255Z,9.33
2023-05-06T06:42:45.995Z,9.15
2023-05-06T06:45:15.217Z,9.41
2023-05-06T06:47:44.334Z,9.00
2023-05-06T06:50:12.431Z,9.32
2023-05-06T06:52:40.177Z,8.93
2023-05-06T06:55:09.241Z,9.17
2023-05-06T06:57:37.881Z,9.13
2023-05-06T07:00:06.042Z,9.58
2023-05-06T07:02:33.789Z,9.65
2023-05-06T07:05:03.027Z,9.67
2023-05-06T07:07:30.803Z,9.33
2023-05-06T07:09:58.805Z,9.51
2023-05-06T07:12:26.847Z,9.54
2023-05-06T07:14:54.591Z,9.45
2023-05-06T07:17:22.357Z,9.56
2023-05-06T07:19:50.173Z,9.92
2023-05-06T07:22:19.446Z,9.65
2023-05-06T07:24:47.208Z,9.73
2023-05-06T07:27:14.946Z,9.68
2023-05-06T07:29:42.695Z,9.95
2023-05-06T07:32:10.425Z,9.79
2023-05-06T07:34:39.462Z,9.76
2023-05-06T07:37:08.234Z,9.45
2023-05-06T07:39:37.359Z,9.74
2023-05-06T07:42:05.109Z,9.91
2023-05-06T07:44:32.852Z,9.63
2023-05-06T07:47:00.771Z,10.02
2023-05-06T07:49:30.861Z,9.95
2023-05-06T07:51:58.666Z,9.95
2023-05-06T07:54:26.570Z,9.98
2023-05-06T07:56:55.947Z,10.14
2023-05-06T07:59:23.984Z,9.57
2023-05-06T08:01:51.774Z,10.12
2023-05-06T08:04:19.584Z,10.02
2023-05-06T08:06:47.324Z,10.23
2023-05-06T08:09:22.761Z,10.15
2023-05-06T08:11:51.303Z,10.58
2023-05-06T08:14:20.445Z,10.64
2023-05-06T08:16:48.401Z,10.16
2023-05-06T08:19:16.222Z,10.19
2023-05-06T08:21:43.957Z,10.11
2023-05-06T08:24:13.604Z,10.03
2023-05-06T08:26:41.896Z,10.17
2023-05-06T08:29:09.621Z,10.30
2023-05-06T08:31:38.770Z,10.37
2023-05-06T08:34:06.515Z,10.08
2023-05-06T08:36:34.249Z,9.91
2023-05-06T08:39:01.973Z,10.30
2023-05-06T08:41:30.404Z,9.98
2023-05-06T08:43:59.415Z,10.30
2023-05-06T08:46:30.981Z,10.36
2023-05-06T08:49:00.619Z,10.61
2023-05-06T08:51:31.889Z,10.29
2023-05-06T08:54:01.709Z,10.22
2023-05-06T08:56:31.445Z,10.07
2023-05-06T08:58:59.541Z,10.20
2023-05-06T09:01:28.506Z,10.07
2023-05-06T09:03:58.197Z,10.57
2023-05-06T09:06:27.354Z,10.43
2023-05-06T09:08:55.073Z,10.49
2023-05-06T09:11:25.766Z,10.45
2023-05-06T09:14:08.981Z,10.65
2023-05-06T09:16:37.139Z,10.80
2023-05-06T09:19:05.238Z,10.81
2023-05-06T09:21:39.429Z,10.32
2023-05-06T09:24:08.634Z,10.62
2023-05-06T09:26:37.630Z,10.52
2023-05-06T09:29:06.181Z,10.69
2023-05-06T09:31:34.234Z,10.53
2023-05-06T09:34:02.042Z,10.61
2023-05-06T09:36:30.018Z,10.76
2023-05-06T09:38:59.152Z,10.98
2023-05-06T09:41:27.206Z,10.86
2023-05-06T09:43:56.249Z,11.05
2023-05-06T09:46:25.148Z,11.10
2023-05-06T09:48:54.369Z,10.60
2023-05-06T09:51:22.822Z,10.55
2023-05-06T09:53:50.652Z,10.84
2023-05-06T09:56:21.408Z,11.22
2023-05-06T09:58:51.172Z,11.09
2023-05-06T10:01:32.837Z,10.97
2023-05-06T10:04:06.871Z,11.03
2023-05-06T10:06:39.361Z,11.38
2023-05-06T10:09:09.138Z,11.68
2023-05-06T10:11:38.398Z,11.50
2023-05-06T10:14:07.393Z,10.85
2023-05-06T10:16:36.204Z,11.18
2023-05-06T10:19:07.410Z,11.71
2023-05-06T10:21:40.524Z,11.12
2023-05-06T10:24:12.053Z,10.91
2023-05-06T10:26:43.491Z,11.33
2023-05-06T10:29:12.147Z,10.91
2023-05-06T10:31:45.476Z,11.32
2023-05-06T10:34:13.605Z,11.28
2023-05-06T10:36:44.449Z,11.30
2023-05-06T10:39:14.321Z,11.15
2023-05-06T10:41:43.843Z,11.15
2023-05-06T10:44:12.865Z,11.09
2023-05-06T10:46:58.714Z,11.46
2023-05-06T10:49:26.633Z,11.33
2023-05-06T10:52:13.615Z,11.54
2023-05-06T10:54:51.831Z,11.49
2023-05-06T10:57:26.542Z,11.87
2023-05-06T10:59:55.936Z,11.30
2023-05-06T11:02:25.193Z,11.36
2023-05-06T11:05:00.984Z,11.32
2023-05-06T11:07:28.847Z,11.26
2023-05-06T11:09:58.147Z,11.29
2023-05-06T11:12:49.347Z,11.73
2023-05-06T11:15:21.903Z,11.61
2023-05-06T11:17:49.694Z,11.43
2023-05-06T11:20:22.243Z,11.42
2023-05-06T11:22:50.176Z,11.81
2023-05-06T11:25:42.443Z,11.95
2023-05-06T11:28:13.027Z,11.82
2023-05-06T11:30:43.715Z,12.10
2023-05-06T11:33:19.976Z,12.32
2023-05-06T11:35:47.725Z,11.90
2023-05-06T11:38:15.594Z,11.90
2023-05-06T11:40:43.682Z,12.66
2023-05-06T11:43:14.220Z,11.94
2023-05-06T11:45:44.903Z,12.31
2023-05-06T11:48:13.290Z,12.09
2023-05-06T11:50:45.440Z,12.62
2023-05-06T11:53:13.329Z,12.25
2023-05-06T11:55:41.544Z,12.06
2023-05-06T11:58:16.467Z,12.36
2023-05-06T12:00:51.416Z,12.66
2023-05-06T12:03:19.917Z,12.25
2023-05-06T12:05:48.834Z,12.21
2023-05-06T12:08:26.863Z,12.58
2023-05-06T12:10:57.293Z,12.19
2023-05-06T12:13:26.715Z,11.80
2023-05-06T12:15:55.770Z,12.18
2023-05-06T12:18:24.405Z,11.81
2023-05-06T12:20:54.655Z,12.06
2023-05-06T12:23:22.803Z,11.55
2023-05-06T12:26:01.751Z,12.03
2023-05-06T12:28:31.888Z,11.77
2023-05-06T12:30:59.645Z,11.79
2023-05-06T12:33:27.403Z,12.07
2023-05-06T12:35:58.282Z,11.98
2023-05-06T12:38:26.141Z,12.00
2023-05-06T12:40:55.458Z,12.09
2023-05-06T12:43:32.330Z,11.83
2023-05-06T12:46:07.270Z,12.78
2023-05-06T12:48:35.427Z,12.25
2023-05-06T12:51:18.887Z,12.00
2023-05-06T12:53:47.070Z,12.32
2023-05-06T12:56:14.902Z,11.84
2023-05-06T12:58:44.021Z,12.10
2023-05-06T13:01:11.873Z,12.33
2023-05-06T13:03:41.040Z,12.36
2023-05-06T13:06:08.927Z,11.80
2023-05-06T13:08:36.594Z,11.87
2023-05-06T13:11:04.388Z,11.70
2023-05-06T13:13:32.106Z,11.73
2023-05-06T13:16:01.574Z,12.14
2023-05-06T13:18:30.375Z,12.19
2023-05-06T13:21:00.161Z,12.13
2023-05-06T13:23:28.005Z,12.18
2023-05-06T13:26:04.129Z,11.69
2023-05-06T13:28:35.379Z,12.02
2023-05-06T13:31:05.040Z,11.82
2023-05-06T13:33:33.473Z,12.02
2023-05-06T13:36:04.015Z,11.74
2023-05-06T13:38:32.911Z,12.12
2023-05-06T13:41:01.157Z,12.24
2023-05-06T13:43:28.869Z,11.54
2023-05-06T13:45:56.603Z,11.75
2023-05-06T13:48:25.896Z,11.95
2023-05-06T13:50:53.601Z,11.98
2023-05-06T13:53:21.549Z,11.81
2023-05-06T13:55:49.292Z,11.93
2023-05-06T13:58:18.145Z,11.60
2023-05-06T14:00:45.969Z,12.29
2023-05-06T14:03:13.682Z,12.19
2023-05-06T14:05:42.819Z,12.21
2023-05-06T14:08:10.545Z,11.58
2023-05-06T14:10:38.294Z,11.56
2023-05-06T14:13:07.288Z,11.82
2023-05-06T14:15:35.410Z,11.78
2023-05-06T14:18:03.203Z,11.94
2023-05-06T14:20:31.447Z,12.02
2023-05-06T14:23:01.532Z,11.67
2023-05-06T14:25:29.646Z,11.69
2023-05-06T14:27:57.463Z,11.87
2023-05-06T14:30:25.868Z,11.38
2023-05-06T14:32:53.709Z,11.78
2023-05-06T14:35:21.795Z,11.70
2023-05-06T14:37:49.565Z,11.95
2023-05-06T14:40:18.681Z,11.60
2023-05-06T14:42:46.652Z,11.71
2023-05-06T14:45:15.784Z,11.42
2023-05-06T14:47:43.970Z,11.47
2023-05-06T14:50:13.118Z,11.77
2023-05-06T14:52:41.744Z,11.90
2023-05-06T14:55:11.700Z,11.57
2023-05-06T14:57:41.070Z,10.85
2023-05-06T15:00:10.281Z,11.73
2023-05-06T15:02:40.569Z,11.63
2023-05-06T15:05:10.305Z,11.57
2023-05-06T15:07:38.282Z,11.49
2023-05-06T15:10:06.791Z,11.78
2023-05-06T15:12:34.683Z,11.45
2023-05-06T15:15:05.086Z,11.50
2023-05-06T15:17:33.412Z,11.45
2023-05-06T15:20:01.308Z,11.62
2023-05-06T15:22:29.138Z,11.48
2023-05-06T15:24:57.520Z,11.74
2023-05-06T15:27:25.384Z,11.48
2023-05-06T15:29:53.101Z,11.62
2023-05-06T15:32:22.272Z,11.36
2023-05-06T15:34:50.024Z,11.56
2023-05-06T15:37:19.269Z,11.39
2023-05-06T15:39:47.914Z,11.23
2023-05-06T15:42:15.897Z,11.64
2023-05-06T15:44:43.692Z,11.35
2023-05-06T15:47:11.433Z,11.22
2023-05-06T15:52:11.824Z,11.50
2023-05-06T15:54:40.987Z,11.61
2023-05-06T15:57:09.714Z,11.32
2023-05-06T15:59:37.503Z,11.19
2023-05-06T16:04:36.184Z,11.38
2023-05-06T16:07:05.602Z,11.29
2023-05-06T16:09:33.368Z,11.19
2023-05-06T16:12:01.323Z,11.02
2023-05-06T16:14:29.102Z,11.44
2023-05-06T16:16:56.876Z,10.95
2023-05-06T16:19:24.617Z,11.23
2023-05-06T16:21:53.023Z,11.60
2023-05-06T16:24:22.149Z,11.19
2023-05-06T16:26:49.889Z,11.24
2023-05-06T16:29:20.457Z,11.09
2023-05-06T16:31:48.620Z,11.33
2023-05-06T16:34:16.655Z,10.76
2023-05-06T16:36:44.670Z,10.71
2023-05-06T16:39:12.481Z,11.11
2023-05-06T16:41:41.596Z,11.03
2023-05-06T16:44:09.308Z,10.37
2023-05-06T16:46:37.098Z,10.89
2023-05-06T16:49:05.158Z,11.22
2023-05-06T16:51:33.153Z,11.41
2023-05-06T16:54:01.313Z,11.06
2023-05-06T16:56:44.063Z,10.92
2023-05-06T16:59:21.419Z,10.89
2023-05-06T17:01:49.867Z,11.12
2023-05-06T17:04:17.630Z,11.03
2023-05-06T17:06:45.614Z,10.95
2023-05-06T17:09:13.350Z,10.65
2023-05-06T17:11:41.076Z,10.69
2023-05-06T17:14:08.795Z,11.21
2023-05-06T17:16:39.085Z,10.86
2023-05-06T17:19:07.071Z,11.06
2023-05-06T17:21:34.806Z,11.20
2023-05-06T17:24:02.551Z,11.12
2023-05-06T17:26:32.399Z,11.45
2023-05-06T17:29:00.513Z,10.91
2023-05-06T17:31:28.563Z,11.37
2023-05-06T17:33:58.502Z,11.15
2023-05-06T17:36:26.397Z,11.12
2023-05-06T17:39:02.752Z,10.98
2023-05-06T17:41:30.475Z,10.63
2023-05-06T17:43:58.189Z,10.88
2023-05-06T17:46:26.217Z,10.97
2023-05-06T17:48:54.037Z,11.03
2023-05-06T17:51:23.191Z,11.24
2023-05-06T17:53:51.574Z,11.09
2023-05-06T17:56:20.217Z,11.28
2023-05-06T17:58:48.300Z,11.03
2023-05-06T18:01:16.326Z,11.11
2023-05-06T18:03:44.963Z,11.24
2023-05-06T18:06:12.976Z,11.24
2023-05-06T18:08:42.093Z,11.42
2023-05-06T18:11:09.924Z,11.28
2023-05-06T18:13:37.741Z,11.15
2023-05-06T18:16:06.089Z,10.73
2023-05-06T18:18:33.830Z,10.83
2023-05-06T18:21:01.649Z,11.30
2023-05-06T18:23:30.052Z,11.34
2023-05-06T18:25:59.169Z,11.41
2023-05-06T18:28:26.955Z,10.87
2023-05-06T18:30:54.714Z,11.33
2023-05-06T18:33:22.484Z,11.13
2023-05-06T18:35:50.426Z,10.88
2023-05-06T18:38:18.690Z,10.76
2023-05-06T18:40:47.907Z,11.29
2023-05-06T18:43:17.124Z,11.58
2023-05-06T18:45:45.016Z,10.95
2023-05-06T18:48:13.584Z,11.14
2023-05-06T18:50:42.687Z,11.43
2023-05-06T18:53:10.742Z,11.17
2023-05-06T18:55:38.622Z,11.27
2023-05-06T18:58:06.521Z,11.23
2023-05-06T19:00:35.704Z,11.03
2023-05-06T19:03:03.526Z,10.72
2023-05-06T19:05:31.312Z,11.17
2023-05-06T19:07:58.990Z,10.89
2023-05-06T19:10:26.713Z,10.89
2023-05-06T19:12:54.514Z,10.82
2023-05-06T19:15:22.438Z,11.02
2023-05-06T19:17:51.624Z,10.91
2023-05-06T19:20:19.446Z,11.12
2023-05-06T19:22:47.165Z,10.70
2023-05-06T19:25:15.011Z,10.70
2023-05-06T19:27:42.763Z,10.92
2023-05-06T19:30:11.441Z,10.84
2023-05-06T19:32:40.330Z,11.06
2023-05-06T19:35:11.128Z,11.03
2023-05-06T19:37:39.192Z,10.79
2023-05-06T19:40:08.037Z,10.91
2023-05-06T19:42:35.917Z,10.50
2023-05-06T19:45:08.208Z,11.06
2023-05-06T19:47:36.309Z,10.50
2023-05-06T19:50:04.314Z,10.39
2023-05-06T19:52:34.659Z,10.98
2023-05-06T19:55:03.252Z,10.89
2023-05-06T19:57:31.785Z,11.31
2023-05-06T19:59:59.516Z,10.95
2023-05-06T20:02:27.336Z,10.82
2023-05-06T20:04:55.111Z,10.34
2023-05-06T20:07:23.260Z,11.10
2023-05-06T20:09:55.402Z,10.63
2023-05-06T20:12:23.404Z,11.10
2023-05-06T20:14:51.308Z,10.67
2023-05-06T20:17:19.141Z,10.91
2023-05-06T20:19:47.026Z,10.83
2023-05-06T20:22:14.833Z,11.08
2023-05-06T20:24:43.308Z,10.68
2023-05-06T20:27:12.601Z,10.67
2023-05-06T20:29:40.845Z,10.90
2023-05-06T20:32:08.594Z,11.07
2023-05-06T20:34:36.361Z,10.99
2023-05-06T20:37:04.722Z,11.05
2023-05-06T20:39:32.637Z,10.55
2023-05-06T20:42:00.921Z,10.95
2023-05-06T20:44:29.992Z,11.39
2023-05-06T20:46:57.698Z,11.42
2023-05-06T20:49:25.528Z,10.53
2023-05-06T20:51:53.272Z,10.83
2023-05-06T20:54:20.997Z,10.70
2023-05-06T20:56:48.761Z,11.12
2023-05-06T20:59:16.559Z,11.04
2023-05-06T21:01:45.860Z,11.01
2023-05-06T21:04:13.705Z,11.12
2023-05-06T21:06:41.495Z,10.83
2023-05-06T21:09:09.408Z,11.08
2023-05-06T21:11:37.292Z,11.03
2023-05-06T21:14:05.066Z,10.99
2023-05-06T21:16:32.958Z,10.65
2023-05-06T21:19:02.072Z,10.57
2023-05-06T21:21:32.457Z,10.81
2023-05-06T21:24:00.275Z,11.21
2023-05-06T21:26:27.981Z,10.85
2023-05-06T21:28:55.677Z,11.05
2023-05-06T21:31:25.194Z,10.79
2023-05-06T21:33:56.462Z,11.10
2023-05-06T21:36:25.994Z,11.47
2023-05-06T21:39:01.506Z,11.45
2023-05-06T21:41:29.302Z,10.79
2023-05-06T21:43:57.150Z,10.99
2023-05-06T21:46:25.053Z,11.24
2023-05-06T21:48:52.834Z,11.45
2023-05-06T21:51:20.699Z,11.39
2023-05-06T21:53:51.724Z,11.52
2023-05-06T21:56:19.541Z,11.27
2023-05-06T21:58:47.291Z,11.31
2023-05-06T22:01:15.486Z,11.16
2023-05-06T22:03:43.436Z,11.35
2023-05-06T22:06:11.409Z,11.53
2023-05-06T22:08:39.571Z,11.45
2023-05-06T22:11:08.675Z,11.40
2023-05-06T22:13:36.533Z,11.23
2023-05-06T22:16:04.482Z,11.23
2023-05-06T22:18:32.218Z,11.02
2023-05-06T22:21:00.157Z,11.16
2023-05-06T22:23:29.048Z,11.25
2023-05-06T22:25:58.517Z,11.28
2023-05-06T22:28:28.315Z,11.40
2023-05-06T22:30:56.094Z,11.39
2023-05-06T22:33:23.975Z,11.40
2023-05-06T22:35:51.823Z,11.10
2023-05-06T22:38:19.551Z,11.05
2023-05-06T22:40:47.309Z,11.33
2023-05-06T22:43:15.060Z,11.34
2023-05-06T22:45:44.299Z,11.19
2023-05-06T22:48:12.062Z,11.61
2023-05-06T22:50:39.929Z,11.39
2023-05-06T22:53:15.124Z,11.53
2023-05-06T22:55:43.492Z,11.42
2023-05-06T22:58:11.262Z,11.18
2023-05-06T23:00:39.050Z,11.12
2023-05-06T23:03:08.199Z,11.49
2023-05-06T23:05:36.142Z,11.45
2023-05-06T23:08:04.059Z,11.68
2023-05-06T23:10:32.020Z,11.45
2023-05-06T23:13:01.451Z,11.63
2023-05-06T23:15:29.878Z,11.27
2023-05-06T23:17:57.644Z,11.36
2023-05-06T23:20:26.838Z,11.47
2023-05-06T23:22:54.628Z,11.48
2023-05-06T23:25:22.359Z,11.43
2023-05-06T23:27:50.067Z,11.17
2023-05-06T23:30:17.785Z,11.44
2023-05-06T23:32:45.567Z,11.41
2023-05-06T23:35:13.642Z,11.29
2023-05-06T23:37:42.773Z,11.24
2023-05-06T23:40:12.553Z,11.30
2023-05-06T23:42:40.449Z,11.38
2023-05-06T23:45:09.570Z,11.45
2023-05-06T23:47:37.515Z,11.46
2023-05-06T23:50:05.831Z,11.40
2023-05-06T23:52:33.581Z,11.32
2023-05-06T23:55:02.700Z,11.28
2023-05-06T23:57:30.421Z,11.95
2023-05-06T23:59:58.331Z,11.24
